West Kingston, RI (02892)

4:46 AM EDT on October 26, 2014 (GMT -0400)
Richmond | Change Station
CLOSE
Current Station
Personal Weather Station
Location: Richmond, RI
Elevation: 312 ft
Nearby Weather Stations

Elev 312 ft 41.52 °N, 71.63 °W | Updated 3 seconds ago

Overcast
Overcast
50.1 °F
Feels Like 50.1 °F
N
0.0
Wind Variable Wind from SE
Gusts 0.0 mph

Today
High -- | Low -- °F
--% Chance of Precip.
Yesterday
High -- | Low -- °F
Precip. -- in
7:10 AM 5:49 PM
Waxing Crescent, 6% visible
Pressure 29.49 in
Visibility 10.0 miles
Clouds Mostly Cloudy 7500 ft
Overcast 9000 ft
Dew Point 48 °F
Humidity 91%
Rainfall 0.00 in
Snow Depth Not available.
UV 0 out of 12
Pollen 1.10 out of 12
Ozone Good
PM2.5 Moderate
Flu Activity No Activity
METAR KWST 260753Z AUTO 33004KT 10SM -RA BKN075 OVC090 13/08 A2949 RMK AO2 RAB22 SLP985 P0000 T01330083

More Conditions Fewer Conditions

Pressure 29.49 in
Visibility 10.0 miles
Clouds Mostly Cloudy 7500 ft
Overcast 9000 ft
Dew Point 48 °F
Humidity 91%
Rainfall 0.00 in
Snow Depth Not available.
UV 0 out of 12
Pollen 1.10 out of 12
Ozone Good
PM2.5 Moderate
Flu Activity No Activity
METAR KWST 260753Z AUTO 33004KT 10SM -RA BKN075 OVC090 13/08 A2949 RMK AO2 RAB22 SLP985 P0000 T01330083

More Conditions Fewer Conditions

10-Day Weather Forecast

Almanac

Astronomy

Oct. 26, 2014 Rise Set
Actual Time 7:10 AM EDT 5:49 PM EDT
Civil Twilight 6:42 AM EDT 6:17 PM EDT
Nautical Twilight 6:10 AM EDT 6:49 PM EDT
Astronomical Twilight 5:37 AM EDT 7:22 PM EDT
Moon 9:47 AM EDT 7:56 PM EDT
Length of Visible Light 11h 35m
Length of Day
10h 38m
Tomorrow will be 2m 33s shorter.
Waxing Crescent, 6% of the Moon is Illuminated
Today
Waxing Crescent
Oct 30
First Quarter
Nov 6
Full
Nov 14
Last Quarter
Nov 22
New

Today's Extremes

State Highs State Lows

Community

WunderPhotos

Upload Photos

1,765,127 photos uploaded!

Nearby

Air Quality

  Air Quality AQ Index Pollutant
Yesterday Good
OZONE
Yesterday Good
PM2.5
Current Moderate
PM2.5
Current Good
OZONE
Sunday Good
OZONE
Sunday Good
PM2.5
Monday Good
OZONE
Monday Good
PM2.5

Snow Depth

Station Depth Elevation
No new snow has been reported.

Earthquake Activity

City Distance Mag. Time & Date
No recent earthquake activity has been reported nearby.
Minimum magnitude displayed is 2.5.

Coastal Water Temperatures

Place Temperature
Newport, RI 60.1 °F
Quonset Point, RI 59.0 °F
Conimicut Light, RI 59.0 °F

Nearby Weather Stations